Flight Track Log - Related Links

Times and Time Zones

All times are in EDT time to prevent confusion due to time zone crossing. See the SWA1728 flight status page for this flight to view local times or setup timezone preferences in your user account.

Time Position Orientation Groundspeed Altitude Reporting Facility
EDT Latitude Longitude Course Direction KTS MPH feet Rate Location/Type
Fri 06:16:31 PM 39.8833 -104.5500 102° East 219 252 7,400  Level Denver TRACON
Fri 06:17:31 PM 39.8667 -104.4500 102° East 270 311 9,700 1,842 Climbing Denver TRACON
Fri 06:18:12 PM 39.8736 -104.3856 82° East 302 348 10,500 1,981 Climbing Denver Center
Fri 06:19:14 PM 39.8733 -104.2633 90° East 340 391 13,100 2,371 Climbing Denver Center
Fri 06:20:16 PM 39.8728 -104.1225 90° East 362 417 15,400 2,226 Climbing Denver Center
Fri 06:21:18 PM 39.8711 -103.9844 91° East 382 440 17,700 2,081 Climbing Denver Center
Fri 06:22:20 PM 39.8742 -103.8461 88° East 382 440 19,700 1,839 Climbing Denver Center
Fri 06:23:22 PM 39.8878 -103.6906 83° East 393 452 21,500 1,742 Climbing Denver Center
Fri 06:24:24 PM 39.9056 -103.5436 81° East 405 466 23,300 1,500 Climbing Denver Center
Fri 06:25:26 PM 39.9206 -103.4183 81° East 414 476 24,600 1,452 Climbing Denver Center
Fri 06:26:28 PM 39.9397 -103.2375 82° East 427 491 26,300 1,452 Climbing Denver Center
Fri 06:27:30 PM 39.9561 -103.0819 82° East 431 496 27,600 1,403 Climbing Denver Center
Fri 06:28:32 PM 39.9747 -102.9253 81° East 433 498 29,200 1,645 Climbing Denver Center
Fri 06:29:34 PM 39.9942 -102.7433 82° East 431 496 31,000 1,258 Climbing Denver Center
Fri 06:30:36 PM 40.0094 -102.6039 82° East 430 495 31,800 1,016 Climbing Denver Center
Fri 06:31:38 PM 40.0278 -102.4300 82° East 433 498 33,100 1,161 Climbing Denver Center
Fri 06:32:40 PM 40.0433 -102.2811 82° East 434 499 34,200 919 Climbing Denver Center
Fri 06:33:42 PM 40.0608 -102.1111 82° East 426 490 35,000 384 Climbing Denver Center
Fri 06:34:45 PM 40.0761 -101.9631 82° East 429 494 35,000  Level Denver Center
Fri 06:35:47 PM 40.0919 -101.7875 83° East 437 503 35,000  Level Denver Center
Fri 06:36:49 PM 40.1064 -101.6369 83° East 437 503 35,000  Level Denver Center
Fri 06:37:51 PM 40.1231 -101.4628 83° East 434 499 35,000  Level Denver Center
Fri 06:38:53 PM 40.1372 -101.3144 83° East 432 497 35,000  Level Denver Center
Fri 06:39:55 PM 40.1542 -101.1419 83° East 433 498 35,000  Level Denver Center
Fri 06:40:57 PM 40.1675 -100.9933 83° East 432 497 35,000  Level Denver Center
Fri 06:41:59 PM 40.1842 -100.8186 83° East 435 501 35,000  Level Denver Center
Fri 06:43:01 PM 40.1969 -100.6681 84° East 438 504 35,000  Level Denver Center
Fri 06:44:03 PM 40.2056 -100.4906 86° East 440 506 35,000  Level Denver Center
Fri 06:45:05 PM 40.2083 -100.3386 89° East 438 504 35,000  Level Denver Center
Fri 06:46:07 PM 40.2103 -100.1553 89° East 450 518 35,000  Level Denver Center
Fri 06:47:09 PM 40.2128 -99.9978 89° East 454 522 35,000  Level Denver Center
Fri 06:48:11 PM 40.2142 -99.8392 89° East 457 526 35,000  Level Denver Center
Fri 06:49:13 PM 40.2167 -99.6442 89° East 450 518 35,000  Level Denver Center
Fri 06:50:15 PM 40.2181 -99.4814 89° East 449 517 35,000  Level Denver Center
Fri 06:51:17 PM 40.2197 -99.3192 89° East 448 516 35,000  Level Denver Center
Fri 06:52:19 PM 40.2211 -99.1581 89° East 446 513 35,000  Level Denver Center
Fri 06:53:21 PM 40.2214 -98.9967 90° East 446 513 35,000  Level Denver Center
Fri 06:54:23 PM 40.2222 -98.8342 90° East 447 514 35,000  Level Denver Center
Fri 06:55:30 PM 40.2225 -98.6383 90° East 451 519 35,000  Level Minneapolis Center
Fri 06:56:32 PM 40.2231 -98.4744 90° East 452 520 35,000  Level Minneapolis Center
Fri 06:57:34 PM 40.2222 -98.3086 90° East 455 524 35,000  Level Minneapolis Center
Fri 06:58:36 PM 40.2225 -98.1078 90° East 459 528 35,000  Level Minneapolis Center
Fri 06:59:38 PM 40.2211 -97.9386 91° East 462 532 35,000  Level Minneapolis Center
Fri 07:00:40 PM 40.2336 -97.7717 84° East 464 534 35,000  Level Minneapolis Center
Fri 07:01:42 PM 40.2600 -97.6033 78° East 470 541 35,000  Level Minneapolis Center
Fri 07:02:44 PM 40.2833 -97.4364 80° East 471 542 35,000  Level Minneapolis Center
Fri 07:03:46 PM 40.3072 -97.2694 79° East 471 542 35,000  Level Minneapolis Center
Fri 07:04:48 PM 40.3367 -97.0678 79° East 471 542 35,000  Level Minneapolis Center
Fri 07:05:50 PM 40.3606 -96.9011 79° East 470 541 35,000  Level Minneapolis Center
Fri 07:06:52 PM 40.3839 -96.7333 80° East 469 540 35,000  Level Minneapolis Center
Fri 07:07:54 PM 40.4078 -96.5661 79° East 470 541 35,000  Level Minneapolis Center
Fri 07:08:57 PM 40.4300 -96.4000 80° East 467 537 35,000  Level Minneapolis Center
Fri 07:09:59 PM 40.4581 -96.1989 80° East 469 540 35,000  Level Minneapolis Center
Fri 07:11:01 PM 40.4806 -96.0325 80° East 468 539 35,000  Level Minneapolis Center
Fri 07:12:03 PM 40.5028 -95.8642 80° East 470 541 35,000  Level Minneapolis Center
Fri 07:13:05 PM 40.5250 -95.6978 80° East 468 539 35,000  Level Minneapolis Center
Fri 07:14:07 PM 40.5472 -95.5308 80° East 467 537 35,000  Level Minneapolis Center
Fri 07:15:09 PM 40.5694 -95.3628 80° East 468 539 35,000  Level Minneapolis Center
Fri 07:16:11 PM 40.5950 -95.1625 80° East 466 536 35,000  Level Minneapolis Center
Fri 07:17:13 PM 40.6161 -94.9925 81° East 471 542 35,000  Level Minneapolis Center
Fri 07:18:15 PM 40.6367 -94.8228 81° East 471 542 35,000  Level Minneapolis Center
Fri 07:19:17 PM 40.6589 -94.6503 80° East 476 548 35,000  Level Minneapolis Center
Fri 07:20:19 PM 40.6825 -94.4522 81° East 480 552 35,000  Level Minneapolis Center
Fri 07:21:21 PM 40.7022 -94.2803 81° East 480 552 35,000  Level Minneapolis Center
Fri 07:22:23 PM 40.7222 -94.1050 81° East 483 556 35,000  Level Minneapolis Center
Fri 07:23:25 PM 40.7444 -93.9311 80° East 484 557 35,000  Level Minneapolis Center
Fri 07:24:27 PM 40.7617 -93.7589 82° East 481 554 35,000  Level Minneapolis Center
Fri 07:25:30 PM 40.7858 -93.5506 81° East 481 554 35,000  Level Minneapolis Center
Fri 07:26:32 PM 40.8061 -93.3756 81° East 483 556 35,000  Level Minneapolis Center
Fri 07:27:34 PM 40.8244 -93.2022 82° East 481 554 35,000  Level Minneapolis Center
Fri 07:28:36 PM 40.8442 -93.0272 81° East 483 556 35,000 -290 Level Minneapolis Center
Fri 07:29:38 PM 40.8619 -92.8511 82° East 484 557 34,400 -545 Descending Minneapolis Center
Fri 07:29:53 PM 40.8664 -92.8156 81° East 482 555 34,300 -871 Descending Chicago Center
Fri 07:30:40 PM 40.8811 -92.6739 82° East 486 559 33,500 -1,161 Descending Minneapolis Center
Fri 07:30:55 PM 40.8883 -92.6033 82° East 485 558 33,100 -857 Descending Chicago Center
Fri 07:31:57 PM 40.9067 -92.4239 82° East 491 565 32,400 -774 Descending Chicago Center
Fri 07:32:59 PM 40.9250 -92.2453 82° East 490 564 31,500 -677 Descending Chicago Center
Fri 07:34:01 PM 40.9433 -92.0647 82° East 495 570 31,000 -242 Descending Chicago Center
Fri 07:35:03 PM 40.9611 -91.8828 83° East 500 575 31,000  Level Chicago Center
Fri 07:36:05 PM 40.9786 -91.7008 83° East 502 578 31,000  Level Chicago Center
Fri 07:37:07 PM 40.9981 -91.4853 83° East 510 587 31,000  Level Chicago Center
Fri 07:38:09 PM 41.0156 -91.2981 83° East 512 589 31,000 -435 Level Chicago Center
Fri 07:39:11 PM 41.0333 -91.1114 83° East 512 589 30,100 -1,839 Descending Chicago Center
Fri 07:40:13 PM 41.0489 -90.9247 84° East 510 587 27,200 -2,613 Descending Chicago Center
Fri 07:41:15 PM 41.0656 -90.7422 83° East 501 577 24,700 -2,032 Descending Chicago Center
Fri 07:42:17 PM 41.0844 -90.5431 83° East 463 533 23,000 -919 Descending Chicago Center
Fri 07:43:19 PM 41.0975 -90.3889 84° East 430 495 22,800 -581 Descending Chicago Center
Fri 07:44:21 PM 41.1086 -90.2339 85° East 422 486 21,800 -976 Descending Chicago Center
Fri 07:45:22 PM 41.1219 -90.0767 84° East 426 490 20,800 -976 Descending Chicago Center
Fri 07:46:24 PM 41.1339 -89.9225 84° East 421 484 19,800 -1,452 Descending Chicago Center
Fri 07:47:26 PM 41.1456 -89.7736 84° East 406 467 17,800 -1,355 Descending Chicago Center
Fri 07:48:28 PM 41.1772 -89.6400 72° East 377 434 17,000 -871 Descending Chicago Center
Fri 07:49:30 PM 41.2142 -89.5111 69° East 372 428 16,000 -1,016 Descending Chicago Center
Fri 07:50:32 PM 41.2581 -89.3597 69° East 366 421 14,900 -1,016 Descending Chicago Center
Fri 07:51:34 PM 41.2925 -89.2350 70° East 360 414 13,900 -919 Descending Chicago Center
Fri 07:52:36 PM 41.3242 -89.1214 70° East 357 411 13,000 -871 Descending Chicago Center
Fri 07:53:38 PM 41.3569 -88.9983 70° East 356 410 12,100 -1,355 Descending Chicago Center
Fri 07:54:40 PM 41.3961 -88.8617 69° East 334 384 10,200 -1,306 Descending Chicago Center
Fri 07:55:42 PM 41.4239 -88.7600 70° East 296 341 9,400 -1,113 Descending Chicago Center
Fri 07:56:44 PM 41.4528 -88.6592 69° East 289 333 7,900 -1,500 Descending Chicago Center
Fri 07:57:46 PM 41.4825 -88.5550 69° East 298 343 6,300 -912 Descending Chicago Center
Fri 07:58:49 PM 41.5036 -88.4525 75° East 289 333 6,000 -143 Descending Chicago Center
Fri 07:59:52 PM 41.5286 -88.3356 74° East 278 320 6,000  Level Chicago Center
Fri 08:00:54 PM 41.5397 -88.2342 82° East 277 319 6,000  Level Chicago Center
Fri 08:01:56 PM 41.5486 -88.1314 83° East 278 320 6,000 -242 Level Chicago Center
Fri 08:02:58 PM 41.5561 -88.0281 84° East 277 319 5,500 -726 Descending Chicago Center
Fri 08:04:00 PM 41.5828 -87.9336 69° East 278 320 4,500 -968 Descending Chicago Center
Fri 08:05:02 PM 41.6272 -87.8481 55° Northeast 279 321 3,500 -1,116 Descending Chicago Center
Fri 08:05:26 PM 41.6500 -87.8000 58° Northeast 290 334 2,900 -987 Descending Chicago TRACON
Fri 08:06:21 PM 41.7000 -87.7333 45° Northeast 263 303 2,200 -446 Descending Chicago TRACON
Fri 08:07:27 PM 41.7667 -87.6833 29° Northeast 209 241 2,000 -381 Descending Chicago TRACON
Fri 08:08:27 PM 41.8000 -87.7000 340° North 158 182 1,400 -600 Descending Chicago TRACON

Login

Don't have an account? Register now (free) for customized features, flight alerts, and more!